createdAt,value
2023-05-18T00:01:17.886Z,2.00
2023-05-18T00:03:47.459Z,1.80
2023-05-18T00:06:16.338Z,2.43
2023-05-18T00:08:44.946Z,2.10
2023-05-18T00:11:13.607Z,1.73
2023-05-18T00:13:42.204Z,1.93
2023-05-18T00:16:12.022Z,2.00
2023-05-18T00:18:42.077Z,2.63
2023-05-18T00:21:10.724Z,1.97
2023-05-18T00:23:39.597Z,2.50
2023-05-18T00:26:08.294Z,2.33
2023-05-18T00:28:36.973Z,1.80
2023-05-18T00:31:06.431Z,1.90
2023-05-18T00:33:35.152Z,2.07
2023-05-18T00:36:05.338Z,2.10
2023-05-18T00:38:33.956Z,2.00
2023-05-18T00:41:02.509Z,1.90
2023-05-18T00:43:31.093Z,2.30
2023-05-18T00:45:59.813Z,2.30
2023-05-18T00:48:28.415Z,2.43
2023-05-18T00:50:57.040Z,2.27
2023-05-18T00:53:26.985Z,2.37
2023-05-18T00:55:55.598Z,2.40
2023-05-18T00:58:24.208Z,2.33
2023-05-18T01:00:53.263Z,2.63
2023-05-18T01:03:22.417Z,2.30
2023-05-18T01:05:55.631Z,2.63
2023-05-18T01:08:24.406Z,2.77
2023-05-18T01:10:56.464Z,2.20
2023-05-18T01:13:29.003Z,2.67
2023-05-18T01:15:59.143Z,2.63
2023-05-18T01:18:31.589Z,2.50
2023-05-18T01:21:01.108Z,2.17
2023-05-18T01:23:55.549Z,2.33
2023-05-18T01:26:29.774Z,2.13
2023-05-18T01:29:00.459Z,2.50
2023-05-18T01:31:29.151Z,2.63
2023-05-18T01:33:57.867Z,2.77
2023-05-18T01:36:26.536Z,2.90
2023-05-18T01:38:55.631Z,2.30
2023-05-18T01:41:26.642Z,2.47
2023-05-18T01:43:57.692Z,2.20
2023-05-18T01:46:33.960Z,2.20
2023-05-18T01:49:04.238Z,2.47
2023-05-18T01:51:34.565Z,2.17
2023-05-18T01:54:04.646Z,2.70
2023-05-18T01:56:35.608Z,2.80
2023-05-18T01:59:04.862Z,2.73
2023-05-18T02:01:33.643Z,2.73
2023-05-18T02:04:02.354Z,2.57
2023-05-18T02:06:31.132Z,2.40
2023-05-18T02:08:59.725Z,2.10
2023-05-18T02:11:28.383Z,2.40
2023-05-18T02:13:58.461Z,2.80
2023-05-18T02:16:27.164Z,2.23
2023-05-18T02:18:56.075Z,2.50
2023-05-18T02:21:25.999Z,2.70
2023-05-18T02:23:54.837Z,2.80
2023-05-18T02:26:23.542Z,2.50
2023-05-18T02:28:52.148Z,2.63
2023-05-18T02:31:22.221Z,2.70
2023-05-18T02:33:51.020Z,2.40
2023-05-18T02:36:22.481Z,2.80
2023-05-18T02:38:51.090Z,2.47
2023-05-18T02:41:19.681Z,2.50
2023-05-18T02:43:48.315Z,2.20
2023-05-18T02:46:17.019Z,2.70
2023-05-18T02:48:47.071Z,2.50
2023-05-18T02:51:15.804Z,2.60
2023-05-18T02:53:44.865Z,2.97
2023-05-18T02:56:13.581Z,2.63
2023-05-18T02:58:43.605Z,2.60
2023-05-18T03:01:13.114Z,2.60
2023-05-18T03:03:43.261Z,2.53
2023-05-18T03:06:14.022Z,2.30
2023-05-18T03:08:42.879Z,2.80
2023-05-18T03:11:11.492Z,2.40
2023-05-18T03:13:40.115Z,2.57
2023-05-18T03:16:08.887Z,2.40
2023-05-18T03:18:37.508Z,2.80
2023-05-18T03:21:07.177Z,2.53
2023-05-18T03:23:37.227Z,2.47
2023-05-18T03:26:10.627Z,2.37
2023-05-18T03:28:39.597Z,2.90
2023-05-18T03:31:08.351Z,3.00
2023-05-18T03:33:37.003Z,2.80
2023-05-18T03:36:06.438Z,2.50
2023-05-18T03:38:35.054Z,3.10
2023-05-18T03:41:05.116Z,2.87
2023-05-18T03:43:33.741Z,3.27
2023-05-18T03:46:02.436Z,2.63
2023-05-18T03:48:31.198Z,2.63
2023-05-18T03:50:59.811Z,2.67
2023-05-18T03:53:29.541Z,3.33
2023-05-18T03:55:58.217Z,2.67
2023-05-18T03:58:29.208Z,3.43
2023-05-18T04:00:57.864Z,2.67
2023-05-18T04:03:27.013Z,2.90
2023-05-18T04:05:56.182Z,2.93
2023-05-18T04:08:25.526Z,3.30
2023-05-18T04:10:54.273Z,3.10
2023-05-18T04:13:22.891Z,3.27
2023-05-18T04:15:52.942Z,2.90
2023-05-18T04:18:21.708Z,2.97
2023-05-18T04:20:50.658Z,3.03
2023-05-18T04:23:20.008Z,3.00
2023-05-18T04:25:49.306Z,3.13
2023-05-18T04:28:19.119Z,3.27
2023-05-18T04:30:47.809Z,3.00
2023-05-18T04:33:17.778Z,3.33
2023-05-18T04:35:46.489Z,3.50
2023-05-18T04:38:16.278Z,3.33
2023-05-18T04:40:44.848Z,3.20
2023-05-18T04:43:13.442Z,2.90
2023-05-18T04:45:42.768Z,2.77
2023-05-18T04:48:11.484Z,3.20
2023-05-18T04:50:42.047Z,3.13
2023-05-18T04:53:12.251Z,3.40
2023-05-18T04:55:42.757Z,3.40
2023-05-18T04:58:11.405Z,3.57
2023-05-18T05:00:39.997Z,3.33
2023-05-18T05:03:08.772Z,3.70
2023-05-18T05:05:37.409Z,3.37
2023-05-18T05:08:07.608Z,3.83
2023-05-18T05:10:36.211Z,3.57
2023-05-18T05:13:05.128Z,3.47
2023-05-18T05:15:34.165Z,4.07
2023-05-18T05:18:02.907Z,4.07
2023-05-18T05:20:31.492Z,4.07
2023-05-18T05:23:00.137Z,3.83
2023-05-18T05:25:30.510Z,3.90
2023-05-18T05:27:59.346Z,3.20
2023-05-18T05:30:28.026Z,4.20
2023-05-18T05:32:56.667Z,2.93
2023-05-18T05:35:25.558Z,3.60
2023-05-18T05:37:54.183Z,3.67
2023-05-18T05:40:23.069Z,3.30
2023-05-18T05:42:53.231Z,3.23
2023-05-18T05:45:22.418Z,2.67
2023-05-18T05:47:51.528Z,3.40
2023-05-18T05:50:20.203Z,3.50
2023-05-18T05:52:48.860Z,3.20
2023-05-18T05:55:17.452Z,3.27
2023-05-18T05:57:46.110Z,3.20
2023-05-18T06:00:17.071Z,3.23
2023-05-18T06:02:45.957Z,2.70
2023-05-18T06:05:14.573Z,2.87
2023-05-18T06:07:43.415Z,2.90
2023-05-18T06:10:12.094Z,2.70
2023-05-18T06:12:41.195Z,3.03
2023-05-18T06:15:10.527Z,2.90
2023-05-18T06:17:40.929Z,3.10
2023-05-18T06:20:10.141Z,2.73
2023-05-18T06:22:38.749Z,2.90
2023-05-18T06:25:08.422Z,3.03
2023-05-18T06:27:37.015Z,3.07
2023-05-18T06:30:07.679Z,3.13
2023-05-18T06:32:37.317Z,3.20
2023-05-18T06:35:08.290Z,3.20
2023-05-18T06:37:37.037Z,3.00
2023-05-18T06:40:07.243Z,3.13
2023-05-18T06:42:36.348Z,2.90
2023-05-18T06:45:05.059Z,2.40
2023-05-18T06:47:33.656Z,2.80
2023-05-18T06:50:23.599Z,2.80
2023-05-18T06:52:52.534Z,2.90
2023-05-18T06:55:21.166Z,2.60
2023-05-18T06:57:49.800Z,2.37
2023-05-18T07:00:18.973Z,2.53
2023-05-18T07:02:47.633Z,2.20
2023-05-18T07:05:17.005Z,2.63
2023-05-18T07:07:47.594Z,2.47
2023-05-18T07:10:16.319Z,2.17
2023-05-18T07:12:44.957Z,2.40
2023-05-18T07:15:13.605Z,2.27
2023-05-18T07:17:42.330Z,2.23
2023-05-18T07:20:11.740Z,2.20
2023-05-18T07:22:40.379Z,2.20
2023-05-18T07:25:11.168Z,2.17
2023-05-18T07:27:39.798Z,2.07
2023-05-18T07:30:09.314Z,2.03
2023-05-18T07:32:38.050Z,2.10
2023-05-18T07:35:07.171Z,2.30
2023-05-18T07:37:35.856Z,2.07
2023-05-18T07:40:05.540Z,2.20
2023-05-18T07:42:35.429Z,2.17
2023-05-18T07:45:04.041Z,1.90
2023-05-18T07:47:32.637Z,1.80
2023-05-18T07:50:01.291Z,1.93
2023-05-18T07:52:29.949Z,2.07
2023-05-18T07:54:58.575Z,2.07
2023-05-18T07:57:27.680Z,2.00
2023-05-18T07:59:57.612Z,2.23
2023-05-18T08:02:26.340Z,2.30
2023-05-18T08:04:55.011Z,1.90
2023-05-18T08:07:26.459Z,2.00
2023-05-18T08:09:55.056Z,2.20
2023-05-18T08:12:24.498Z,2.20
2023-05-18T08:14:53.106Z,2.20
2023-05-18T08:17:23.052Z,2.27
2023-05-18T08:19:53.903Z,1.73
2023-05-18T08:22:22.590Z,2.40
2023-05-18T08:24:51.951Z,2.23
2023-05-18T08:27:20.530Z,2.27
2023-05-18T08:29:49.232Z,1.90
2023-05-18T08:32:17.915Z,1.90
2023-05-18T08:34:50.120Z,1.90
2023-05-18T08:37:18.827Z,1.87
2023-05-18T08:39:47.449Z,1.80
2023-05-18T08:42:19.516Z,2.00
2023-05-18T08:44:52.395Z,1.77
2023-05-18T08:47:25.981Z,1.50
2023-05-18T08:49:58.198Z,1.73
2023-05-18T08:52:28.048Z,2.03
2023-05-18T08:54:59.992Z,2.20
2023-05-18T08:57:30.573Z,2.07
2023-05-18T09:00:02.322Z,2.33
2023-05-18T09:02:30.998Z,2.20
2023-05-18T09:05:01.191Z,2.10
2023-05-18T09:07:30.520Z,2.10
2023-05-18T09:09:59.443Z,1.97
2023-05-18T09:12:28.548Z,1.87
2023-05-18T09:14:57.520Z,2.43
2023-05-18T09:17:26.201Z,1.90
2023-05-18T09:19:54.838Z,1.80
2023-05-18T09:22:24.937Z,2.10
2023-05-18T09:24:53.790Z,2.20
2023-05-18T09:27:23.325Z,2.10
2023-05-18T09:29:55.310Z,1.97
2023-05-18T09:32:24.321Z,1.97
2023-05-18T09:34:53.557Z,2.20
2023-05-18T09:37:22.829Z,2.47
2023-05-18T09:40:01.375Z,2.17
2023-05-18T09:42:37.252Z,2.70
2023-05-18T09:45:06.276Z,2.47
2023-05-18T09:47:35.634Z,2.20
2023-05-18T09:50:04.229Z,2.10
2023-05-18T09:52:32.856Z,2.40
2023-05-18T09:55:04.538Z,2.40
2023-05-18T09:57:33.181Z,2.00
2023-05-18T10:00:10.432Z,2.17
2023-05-18T10:02:39.977Z,2.00
2023-05-18T10:05:09.294Z,2.10
2023-05-18T10:07:37.903Z,2.10
2023-05-18T10:10:09.345Z,2.07
2023-05-18T10:12:40.577Z,1.90
2023-05-18T10:15:11.155Z,2.47
2023-05-18T10:17:40.846Z,1.80
2023-05-18T10:20:10.953Z,1.93
2023-05-18T10:22:39.564Z,2.40
2023-05-18T10:25:11.729Z,2.27
2023-05-18T10:27:42.230Z,2.20
2023-05-18T10:30:11.730Z,2.00
2023-05-18T10:32:40.739Z,2.57
2023-05-18T10:35:09.885Z,2.10
2023-05-18T10:37:40.201Z,2.30
2023-05-18T10:40:12.322Z,1.93
2023-05-18T10:42:41.890Z,1.90
2023-05-18T10:45:11.989Z,2.23
2023-05-18T10:47:42.474Z,1.90
2023-05-18T10:50:11.796Z,2.10
2023-05-18T10:54:35.698Z,2.30
2023-05-18T10:57:04.392Z,2.00
2023-05-18T10:59:33.205Z,2.33
2023-05-18T11:02:03.183Z,1.87
2023-05-18T11:04:33.107Z,1.83
2023-05-18T11:07:02.391Z,2.00
2023-05-18T11:09:31.257Z,2.00
2023-05-18T11:12:01.969Z,2.00
2023-05-18T11:14:31.501Z,1.93
2023-05-18T11:17:17.894Z,2.13
2023-05-18T11:20:05.182Z,1.67
2023-05-18T11:22:42.527Z,1.80
2023-05-18T11:25:11.320Z,1.90
2023-05-18T11:27:41.245Z,2.30
2023-05-18T11:30:28.476Z,1.67
2023-05-18T11:33:09.472Z,1.80
2023-05-18T11:35:53.137Z,1.63
2023-05-18T11:38:21.737Z,1.90
2023-05-18T11:40:50.747Z,1.67
2023-05-18T11:43:24.383Z,2.03
2023-05-18T11:45:58.984Z,1.93
2023-05-18T11:48:29.794Z,2.13
2023-05-18T11:50:58.736Z,2.00
2023-05-18T11:53:28.420Z,1.77
2023-05-18T11:55:57.515Z,1.40
2023-05-18T11:58:27.834Z,2.03
2023-05-18T12:00:57.650Z,1.50
2023-05-18T12:03:27.881Z,1.80
2023-05-18T12:05:59.510Z,2.00
2023-05-18T12:08:29.593Z,1.90
2023-05-18T12:10:58.434Z,1.77
2023-05-18T12:13:29.257Z,1.53
2023-05-18T12:15:59.133Z,1.60
2023-05-18T12:18:30.446Z,2.00
2023-05-18T12:20:59.103Z,1.87
2023-05-18T12:23:37.958Z,1.53
2023-05-18T12:26:06.746Z,1.70
2023-05-18T12:28:36.745Z,1.73
2023-05-18T12:31:08.449Z,1.70
2023-05-18T12:33:37.232Z,1.67
2023-05-18T12:36:11.622Z,2.07
2023-05-18T12:38:40.634Z,2.15
2023-05-18T12:41:09.599Z,2.20
2023-05-18T12:43:40.356Z,1.80
2023-05-18T12:46:09.082Z,1.90
2023-05-18T12:48:37.918Z,1.90
2023-05-18T12:51:07.934Z,2.20
2023-05-18T12:53:45.504Z,2.25
2023-05-18T12:56:14.491Z,2.35
2023-05-18T12:58:55.778Z,2.00
2023-05-18T13:01:25.749Z,1.80
2023-05-18T13:03:58.405Z,1.77
2023-05-18T13:06:27.497Z,2.28
2023-05-18T13:08:56.627Z,1.77
2023-05-18T13:11:28.214Z,1.90
2023-05-18T13:14:01.898Z,1.88
2023-05-18T13:16:30.947Z,1.98
2023-05-18T13:19:00.440Z,2.00
2023-05-18T13:21:29.168Z,1.88
2023-05-18T13:23:57.843Z,1.70
2023-05-18T13:26:26.740Z,2.10
2023-05-18T13:28:55.958Z,1.73
2023-05-18T13:31:26.138Z,2.10
2023-05-18T13:33:54.819Z,2.00
2023-05-18T13:36:23.540Z,2.08
2023-05-18T13:38:52.381Z,1.50
2023-05-18T13:41:21.297Z,1.70
2023-05-18T13:43:49.945Z,2.00
2023-05-18T13:46:18.599Z,1.90
2023-05-18T13:48:48.674Z,1.63
2023-05-18T13:51:17.287Z,1.70
2023-05-18T13:53:45.995Z,2.13
2023-05-18T13:56:14.608Z,2.30
2023-05-18T13:58:43.635Z,2.00
2023-05-18T14:01:13.808Z,1.77
2023-05-18T14:03:42.609Z,2.05
2023-05-18T14:06:12.834Z,2.00
2023-05-18T14:08:41.719Z,2.10
2023-05-18T14:11:10.375Z,2.17
2023-05-18T14:13:39.013Z,1.80
2023-05-18T14:16:08.111Z,1.70
2023-05-18T14:18:36.729Z,1.90
2023-05-18T14:21:05.444Z,2.15
2023-05-18T14:23:35.588Z,2.10
2023-05-18T14:26:04.264Z,2.13
2023-05-18T14:28:32.895Z,2.00
2023-05-18T14:31:01.530Z,2.10
2023-05-18T14:33:30.218Z,2.50
2023-05-18T14:35:58.902Z,2.40
2023-05-18T14:38:27.582Z,2.13
2023-05-18T14:40:57.522Z,1.87
2023-05-18T14:43:26.077Z,2.40
2023-05-18T14:46:07.514Z,2.47
2023-05-18T14:48:37.540Z,2.20
2023-05-18T14:51:06.265Z,2.13
2023-05-18T14:53:34.908Z,1.97
2023-05-18T14:56:08.394Z,1.93
2023-05-18T14:58:37.663Z,2.60
2023-05-18T15:01:07.098Z,2.07
2023-05-18T15:03:35.905Z,2.33
2023-05-18T15:06:04.645Z,2.20
2023-05-18T15:08:33.314Z,1.60
2023-05-18T15:11:01.943Z,2.13
2023-05-18T15:13:32.015Z,2.00
2023-05-18T15:16:00.804Z,2.27
2023-05-18T15:18:29.433Z,2.07
2023-05-18T15:20:57.980Z,2.10
2023-05-18T15:23:27.172Z,2.00
2023-05-18T15:25:56.055Z,2.17
2023-05-18T15:28:24.819Z,2.07
2023-05-18T15:30:55.270Z,2.07
2023-05-18T15:33:23.877Z,2.07
2023-05-18T15:35:52.536Z,1.97
2023-05-18T15:38:21.148Z,1.97
2023-05-18T15:40:50.346Z,2.50
2023-05-18T15:43:20.117Z,2.00
2023-05-18T15:45:48.925Z,1.80
2023-05-18T15:48:19.014Z,2.00
2023-05-18T15:50:47.703Z,1.90
2023-05-18T15:53:16.515Z,1.97
2023-05-18T15:55:45.169Z,1.93
2023-05-18T15:58:14.617Z,1.57
2023-05-18T16:00:43.226Z,2.30
2023-05-18T16:03:12.485Z,2.00
2023-05-18T16:05:42.574Z,1.90
2023-05-18T16:08:11.186Z,2.10
2023-05-18T16:10:39.752Z,1.50
2023-05-18T16:13:08.375Z,2.10
2023-05-18T16:15:37.450Z,1.60
2023-05-18T16:18:06.609Z,1.60
2023-05-18T16:20:35.490Z,2.10
2023-05-18T16:23:05.566Z,1.80
2023-05-18T16:25:34.238Z,2.07
2023-05-18T16:28:02.851Z,2.23
2023-05-18T16:30:31.696Z,1.90
2023-05-18T16:33:00.592Z,1.70
2023-05-18T16:35:31.783Z,1.73
2023-05-18T16:38:00.452Z,2.23
2023-05-18T16:40:30.692Z,1.97
2023-05-18T16:42:59.536Z,1.87
2023-05-18T16:45:28.123Z,1.87
2023-05-18T16:47:56.845Z,1.90
2023-05-18T16:50:27.692Z,1.90
2023-05-18T16:52:56.298Z,1.90
2023-05-18T16:55:25.301Z,1.73
2023-05-18T16:57:55.329Z,2.27
2023-05-18T17:00:23.975Z,1.80
2023-05-18T17:02:53.305Z,1.80
2023-05-18T17:05:22.890Z,1.80
2023-05-18T17:07:52.364Z,2.10
2023-05-18T17:10:21.162Z,1.70
2023-05-18T17:12:52.665Z,2.40
2023-05-18T17:15:22.633Z,1.60
2023-05-18T17:17:51.278Z,1.80
2023-05-18T17:20:19.986Z,2.30
2023-05-18T17:22:48.639Z,1.73
2023-05-18T17:25:17.229Z,1.90
2023-05-18T17:27:45.930Z,2.03
2023-05-18T17:30:14.670Z,1.97
2023-05-18T17:32:45.580Z,2.37
2023-05-18T17:35:14.612Z,1.70
2023-05-18T17:37:43.255Z,1.83
2023-05-18T17:40:12.206Z,1.70
2023-05-18T17:42:40.878Z,1.53
2023-05-18T17:45:09.955Z,2.00
2023-05-18T17:47:39.055Z,2.33
2023-05-18T17:50:09.767Z,2.07
2023-05-18T17:52:38.349Z,2.10
2023-05-18T17:55:07.467Z,2.20
2023-05-18T17:57:36.074Z,2.30
2023-05-18T18:00:06.109Z,3.80
2023-05-18T18:02:34.903Z,2.67
2023-05-18T18:05:03.560Z,2.40
2023-05-18T18:07:33.597Z,1.53
2023-05-18T18:10:02.197Z,1.63
2023-05-18T18:12:31.286Z,1.87
2023-05-18T18:14:59.909Z,1.90
2023-05-18T18:17:28.836Z,1.80
2023-05-18T18:19:58.412Z,1.63
2023-05-18T18:22:27.022Z,1.80
2023-05-18T18:24:56.941Z,1.67
2023-05-18T18:27:25.513Z,1.97
2023-05-18T18:29:54.118Z,1.73
2023-05-18T18:32:22.806Z,1.53
2023-05-18T18:34:51.853Z,1.67
2023-05-18T18:37:20.665Z,1.93
2023-05-18T18:39:49.297Z,1.90
2023-05-18T18:42:21.578Z,1.70
2023-05-18T18:44:52.771Z,1.40
2023-05-18T18:47:21.391Z,1.40
2023-05-18T18:49:49.998Z,1.47
2023-05-18T18:52:18.614Z,1.57
2023-05-18T18:54:47.543Z,1.57
2023-05-18T18:57:16.482Z,1.50
2023-05-18T18:59:46.410Z,1.90
2023-05-18T19:02:15.177Z,1.40
2023-05-18T19:04:43.890Z,1.80
2023-05-18T19:07:12.580Z,1.63
2023-05-18T19:09:41.211Z,1.63
2023-05-18T19:12:10.547Z,1.80
2023-05-18T19:14:39.366Z,2.07
2023-05-18T19:17:09.379Z,1.70
2023-05-18T19:19:38.325Z,1.70
2023-05-18T19:22:07.238Z,1.53
2023-05-18T19:24:35.922Z,1.50
2023-05-18T19:27:04.630Z,1.70
2023-05-18T19:29:36.408Z,1.83
2023-05-18T19:32:05.602Z,1.90
2023-05-18T19:34:35.646Z,1.93
2023-05-18T19:37:04.349Z,2.27
2023-05-18T19:39:32.979Z,2.23
2023-05-18T19:42:01.781Z,2.60
2023-05-18T19:44:31.314Z,2.03
2023-05-18T19:47:01.348Z,2.17
2023-05-18T19:49:31.338Z,2.10
2023-05-18T19:52:01.329Z,2.10
2023-05-18T19:54:29.960Z,2.00
2023-05-18T19:56:58.631Z,1.77
2023-05-18T19:59:27.268Z,1.83
2023-05-18T20:01:57.672Z,1.70
2023-05-18T20:04:28.365Z,1.80
2023-05-18T20:06:58.225Z,1.77
2023-05-18T20:09:28.327Z,1.80
2023-05-18T20:11:57.001Z,1.90
2023-05-18T20:14:26.854Z,1.77
2023-05-18T20:17:00.225Z,2.00
2023-05-18T20:19:28.957Z,2.00
2023-05-18T20:21:57.896Z,1.70
2023-05-18T20:24:28.117Z,1.70
2023-05-18T20:26:57.059Z,1.60
2023-05-18T20:29:25.639Z,1.83
2023-05-18T20:31:55.113Z,1.90
2023-05-18T20:34:23.879Z,2.20
2023-05-18T20:36:52.551Z,1.77
2023-05-18T20:39:21.133Z,1.80
2023-05-18T20:41:51.171Z,2.37
2023-05-18T20:44:22.967Z,1.90
2023-05-18T20:46:52.992Z,2.07
2023-05-18T20:49:22.240Z,2.07
2023-05-18T20:51:50.934Z,2.20
2023-05-18T20:54:21.158Z,2.83
2023-05-18T20:56:51.784Z,3.03
2023-05-18T20:59:20.543Z,2.93
2023-05-18T21:01:51.019Z,3.10
2023-05-18T21:04:19.984Z,2.70
2023-05-18T21:06:49.145Z,2.27
2023-05-18T21:09:18.569Z,2.63
2023-05-18T21:11:47.140Z,2.63
2023-05-18T21:14:17.513Z,2.50
2023-05-18T21:16:46.756Z,2.27
2023-05-18T21:19:15.439Z,2.90
2023-05-18T21:21:44.285Z,2.27
2023-05-18T21:24:12.941Z,2.80
2023-05-18T21:26:42.002Z,2.70
2023-05-18T21:29:11.139Z,2.57
2023-05-18T21:31:41.123Z,2.50
2023-05-18T21:34:09.862Z,2.67
2023-05-18T21:36:38.506Z,2.90
2023-05-18T21:39:09.266Z,2.70
2023-05-18T21:41:40.187Z,2.87
2023-05-18T21:44:08.904Z,3.10
2023-05-18T21:46:37.794Z,3.00
2023-05-18T21:49:08.806Z,2.90
2023-05-18T21:51:37.556Z,2.60
2023-05-18T21:54:06.304Z,3.10
2023-05-18T21:56:36.681Z,2.70
2023-05-18T21:59:05.377Z,3.23
2023-05-18T22:01:34.100Z,2.97
2023-05-18T22:04:02.927Z,2.90
2023-05-18T22:06:32.929Z,2.80
2023-05-18T22:09:01.516Z,3.23
2023-05-18T22:11:30.191Z,3.30
2023-05-18T22:13:59.097Z,2.97
2023-05-18T22:16:27.892Z,3.10
2023-05-18T22:18:56.638Z,3.53
2023-05-18T22:21:25.433Z,3.13
2023-05-18T22:23:55.398Z,2.67
2023-05-18T22:26:23.998Z,2.80
2023-05-18T22:28:52.693Z,2.80
2023-05-18T22:31:21.336Z,2.90
2023-05-18T22:33:52.401Z,3.20
2023-05-18T22:36:22.426Z,2.73
2023-05-18T22:38:52.505Z,2.77
2023-05-18T22:41:22.934Z,3.20
2023-05-18T22:43:51.568Z,2.73
2023-05-18T22:46:20.664Z,3.23
2023-05-18T22:48:49.422Z,3.30
2023-05-18T22:51:18.529Z,3.47
2023-05-18T22:53:47.422Z,3.13
2023-05-18T22:56:18.884Z,3.30
2023-05-18T22:58:48.932Z,3.27
2023-05-18T23:01:17.619Z,3.67
2023-05-18T23:03:46.269Z,3.10
2023-05-18T23:06:14.865Z,3.43
2023-05-18T23:08:43.988Z,3.37
2023-05-18T23:11:12.557Z,3.13
2023-05-18T23:13:41.225Z,3.13
2023-05-18T23:16:11.342Z,3.60
2023-05-18T23:18:40.051Z,3.30
2023-05-18T23:21:08.972Z,3.57
2023-05-18T23:23:37.682Z,3.00
2023-05-18T23:26:06.328Z,3.07
2023-05-18T23:28:34.950Z,3.13
2023-05-18T23:31:03.571Z,3.23
2023-05-18T23:33:34.071Z,3.40
2023-05-18T23:36:03.883Z,3.20
2023-05-18T23:38:37.699Z,3.30
2023-05-18T23:41:06.514Z,3.37
2023-05-18T23:43:35.480Z,3.20
2023-05-18T23:46:04.995Z,3.23
2023-05-18T23:48:35.893Z,3.87
2023-05-18T23:51:04.699Z,3.10
2023-05-18T23:53:34.184Z,3.33
2023-05-18T23:56:04.141Z,3.20
2023-05-18T23:58:33.281Z,3.17
